sensor_id;sensor_type;location;lat;lon;timestamp;pressure;altitude;pressure_sealevel;temperature;humidity
36304;BME280;22335;49.800;8.596;2023-07-09T00:04:29;100710.97;;;29.61;42.07
36304;BME280;22335;49.800;8.596;2023-07-09T00:11:15;100717.00;;;29.45;42.24
36304;BME280;22335;49.800;8.596;2023-07-09T00:17:59;100728.72;;;29.36;42.52
36304;BME280;22335;49.800;8.596;2023-07-09T00:24:46;100711.03;;;29.25;42.61
36304;BME280;22335;49.800;8.596;2023-07-09T00:31:31;100737.59;;;29.28;42.48
36304;BME280;22335;49.800;8.596;2023-07-09T00:38:20;100740.06;;;29.11;43.05
36304;BME280;22335;49.800;8.596;2023-07-09T00:45:17;100737.63;;;28.99;43.32
36304;BME280;22335;49.800;8.596;2023-07-09T00:52:13;100731.59;;;28.86;43.17
36304;BME280;22335;49.800;8.596;2023-07-09T00:59:06;100737.22;;;28.90;43.25
36304;BME280;22335;49.800;8.596;2023-07-09T01:05:54;100699.03;;;28.57;42.73
36304;BME280;22335;49.800;8.596;2023-07-09T01:12:41;100760.16;;;28.81;43.24
36304;BME280;22335;49.800;8.596;2023-07-09T01:19:28;100693.75;;;28.30;43.19
36304;BME280;22335;49.800;8.596;2023-07-09T01:26:16;100758.56;;;28.62;43.33
36304;BME280;22335;49.800;8.596;2023-07-09T01:33:03;100761.34;;;28.41;43.75
36304;BME280;22335;49.800;8.596;2023-07-09T01:39:48;100776.63;;;28.43;43.23
36304;BME280;22335;49.800;8.596;2023-07-09T01:46:34;100760.88;;;28.39;43.74
36304;BME280;22335;49.800;8.596;2023-07-09T01:53:20;100756.84;;;28.33;43.78
36304;BME280;22335;49.800;8.596;2023-07-09T02:00:08;100761.28;;;28.34;43.42
36304;BME280;22335;49.800;8.596;2023-07-09T02:06:56;100764.50;;;28.28;43.36
36304;BME280;22335;49.800;8.596;2023-07-09T02:13:40;100723.41;;;27.92;43.68
36304;BME280;22335;49.800;8.596;2023-07-09T02:20:24;100775.28;;;28.09;43.89
36304;BME280;22335;49.800;8.596;2023-07-09T02:27:10;100754.34;;;27.92;43.74
36304;BME280;22335;49.800;8.596;2023-07-09T02:33:56;100767.97;;;27.86;43.51
36304;BME280;22335;49.800;8.596;2023-07-09T02:40:39;100752.31;;;27.81;43.64
36304;BME280;22335;49.800;8.596;2023-07-09T03:02:27;100764.66;;;27.66;43.66
36304;BME280;22335;49.800;8.596;2023-07-09T03:09:11;100778.28;;;27.64;43.30
36304;BME280;22335;49.800;8.596;2023-07-09T03:15:55;100785.44;;;27.47;43.70
36304;BME280;22335;49.800;8.596;2023-07-09T03:22:41;100784.13;;;27.38;43.82
36304;BME280;22335;49.800;8.596;2023-07-09T03:29:24;100768.31;;;27.11;43.90
36304;BME280;22335;49.800;8.596;2023-07-09T03:36:08;100711.81;;;26.65;43.49
36304;BME280;22335;49.800;8.596;2023-07-09T03:42:53;100801.31;;;27.25;43.84
36304;BME280;22335;49.800;8.596;2023-07-09T03:49:37;100804.16;;;27.29;43.57
36304;BME280;22335;49.800;8.596;2023-07-09T03:56:23;100807.34;;;27.27;43.71
36304;BME280;22335;49.800;8.596;2023-07-09T04:03:08;100815.31;;;27.18;44.02
36304;BME280;22335;49.800;8.596;2023-07-09T04:09:52;100821.28;;;27.13;43.83
36304;BME280;22335;49.800;8.596;2023-07-09T04:16:35;100678.91;;;26.17;44.05
36304;BME280;22335;49.800;8.596;2023-07-09T04:23:20;100824.50;;;27.15;43.80
36304;BME280;22335;49.800;8.596;2023-07-09T04:30:05;100826.16;;;27.20;44.05
36304;BME280;22335;49.800;8.596;2023-07-09T04:36:50;100829.38;;;27.22;43.92
36304;BME280;22335;49.800;8.596;2023-07-09T04:43:35;100821.34;;;27.17;44.17
36304;BME280;22335;49.800;8.596;2023-07-09T04:50:19;100823.34;;;27.16;44.17
36304;BME280;22335;49.800;8.596;2023-07-09T04:57:04;100816.59;;;27.31;43.77
36304;BME280;22335;49.800;8.596;2023-07-09T05:03:49;100778.03;;;27.21;44.09
36304;BME280;22335;49.800;8.596;2023-07-09T05:10:33;100783.25;;;27.19;44.14
36304;BME280;22335;49.800;8.596;2023-07-09T05:17:17;100790.50;;;27.27;44.75
36304;BME280;22335;49.800;8.596;2023-07-09T05:24:03;100831.66;;;27.61;45.75
36304;BME280;22335;49.800;8.596;2023-07-09T05:30:47;100841.06;;;27.83;45.96
36304;BME280;22335;49.800;8.596;2023-07-09T05:37:31;100841.09;;;27.93;46.16
36304;BME280;22335;49.800;8.596;2023-07-09T05:44:16;100827.50;;;28.06;46.25
36304;BME280;22335;49.800;8.596;2023-07-09T05:51:00;100844.84;;;28.26;46.61
36304;BME280;22335;49.800;8.596;2023-07-09T05:57:44;100844.50;;;28.38;46.52
36304;BME280;22335;49.800;8.596;2023-07-09T06:04:29;100831.69;;;28.41;46.63
36304;BME280;22335;49.800;8.596;2023-07-09T06:11:13;100840.97;;;28.59;46.46
36304;BME280;22335;49.800;8.596;2023-07-09T06:17:56;100845.44;;;28.82;46.66
36304;BME280;22335;49.800;8.596;2023-07-09T06:24:41;100835.78;;;29.01;45.98
36304;BME280;22335;49.800;8.596;2023-07-09T06:31:25;100859.16;;;29.33;46.03
36304;BME280;22335;49.800;8.596;2023-07-09T06:38:09;100854.28;;;29.48;44.84
36304;BME280;22335;49.800;8.596;2023-07-09T06:44:54;100851.09;;;29.68;43.68
36304;BME280;22335;49.800;8.596;2023-07-09T06:51:37;100863.16;;;29.72;43.30
36304;BME280;22335;49.800;8.596;2023-07-09T06:58:22;100837.78;;;29.64;44.42
36304;BME280;22335;49.800;8.596;2023-07-09T07:05:08;100863.84;;;30.12;43.63
36304;BME280;22335;49.800;8.596;2023-07-09T07:11:52;100867.03;;;30.24;42.44
36304;BME280;22335;49.800;8.596;2023-07-09T07:18:36;100841.22;;;30.19;42.15
36304;BME280;22335;49.800;8.596;2023-07-09T07:25:22;100837.03;;;30.55;41.89
36304;BME280;22335;49.800;8.596;2023-07-09T07:32:07;100834.06;;;30.77;41.37
36304;BME280;22335;49.800;8.596;2023-07-09T07:38:51;100846.03;;;30.99;41.48
36304;BME280;22335;49.800;8.596;2023-07-09T07:45:36;100842.63;;;31.22;41.09
36304;BME280;22335;49.800;8.596;2023-07-09T07:52:23;100855.44;;;31.34;40.70
36304;BME280;22335;49.800;8.596;2023-07-09T07:59:07;100820.69;;;31.33;41.16
36304;BME280;22335;49.800;8.596;2023-07-09T08:05:52;100820.94;;;31.50;40.34
36304;BME280;22335;49.800;8.596;2023-07-09T08:12:36;100817.75;;;31.48;40.22
36304;BME280;22335;49.800;8.596;2023-07-09T08:19:20;100830.34;;;31.77;40.32
36304;BME280;22335;49.800;8.596;2023-07-09T08:26:05;100818.00;;;31.98;39.67
36304;BME280;22335;49.800;8.596;2023-07-09T08:32:49;100802.56;;;32.06;39.39
36304;BME280;22335;49.800;8.596;2023-07-09T08:39:33;100768.09;;;32.15;39.10
36304;BME280;22335;49.800;8.596;2023-07-09T08:46:24;100763.31;;;32.35;38.52
36304;BME280;22335;49.800;8.596;2023-07-09T08:53:18;100797.47;;;32.79;38.46
36304;BME280;22335;49.800;8.596;2023-07-09T09:00:12;100807.38;;;33.18;37.20
36304;BME280;22335;49.800;8.596;2023-07-09T09:07:07;100803.81;;;33.57;37.15
36304;BME280;22335;49.800;8.596;2023-07-09T09:14:01;100792.03;;;33.79;35.97
36304;BME280;22335;49.800;8.596;2023-07-09T09:20:53;100776.84;;;33.89;36.18
36304;BME280;22335;49.800;8.596;2023-07-09T09:27:41;100773.56;;;34.10;35.48
36304;BME280;22335;49.800;8.596;2023-07-09T09:34:29;100791.66;;;34.53;34.61
36304;BME280;22335;49.800;8.596;2023-07-09T09:41:14;100743.25;;;34.40;33.99
36304;BME280;22335;49.800;8.596;2023-07-09T09:48:01;100771.09;;;34.65;33.60
36304;BME280;22335;49.800;8.596;2023-07-09T09:54:53;100801.00;;;35.02;33.13
36304;BME280;22335;49.800;8.596;2023-07-09T10:01:38;100810.16;;;35.26;33.15
36304;BME280;22335;49.800;8.596;2023-07-09T10:08:29;100783.38;;;35.56;32.91
36304;BME280;22335;49.800;8.596;2023-07-09T10:15:27;100756.56;;;35.83;32.28
36304;BME280;22335;49.800;8.596;2023-07-09T10:22:24;100763.00;;;36.13;32.31
36304;BME280;22335;49.800;8.596;2023-07-09T10:29:32;100729.19;;;36.28;31.12
36304;BME280;22335;49.800;8.596;2023-07-09T10:36:47;100748.31;;;36.65;30.00
36304;BME280;22335;49.800;8.596;2023-07-09T10:43:52;100739.84;;;36.87;30.23
36304;BME280;22335;49.800;8.596;2023-07-09T10:50:44;100738.66;;;37.10;29.09
36304;BME280;22335;49.800;8.596;2023-07-09T10:57:43;100725.00;;;37.27;29.46
36304;BME280;22335;49.800;8.596;2023-07-09T11:04:35;100719.31;;;37.49;28.81
36304;BME280;22335;49.800;8.596;2023-07-09T11:11:31;100713.25;;;37.69;28.07
36304;BME280;22335;49.800;8.596;2023-07-09T11:18:26;100707.47;;;37.82;28.34
36304;BME280;22335;49.800;8.596;2023-07-09T11:25:27;100697.72;;;37.92;27.48
36304;BME280;22335;49.800;8.596;2023-07-09T11:32:20;100687.34;;;38.17;27.68
36304;BME280;22335;49.800;8.596;2023-07-09T11:39:19;100686.84;;;38.18;27.37
36304;BME280;22335;49.800;8.596;2023-07-09T11:46:10;100679.75;;;38.23;26.55
36304;BME280;22335;49.800;8.596;2023-07-09T11:52:59;100676.19;;;38.50;26.81
36304;BME280;22335;49.800;8.596;2023-07-09T11:59:45;100645.06;;;38.52;26.14
36304;BME280;22335;49.800;8.596;2023-07-09T12:06:31;100667.16;;;38.70;26.05
36304;BME280;22335;49.800;8.596;2023-07-09T12:13:17;100662.28;;;38.89;25.94
36304;BME280;22335;49.800;8.596;2023-07-09T12:20:01;100657.66;;;39.10;24.93
36304;BME280;22335;49.800;8.596;2023-07-09T12:26:48;100643.00;;;39.26;24.44
36304;BME280;22335;49.800;8.596;2023-07-09T12:33:33;100634.59;;;39.23;25.18
36304;BME280;22335;49.800;8.596;2023-07-09T12:40:20;100573.28;;;38.96;25.07
36304;BME280;22335;49.800;8.596;2023-07-09T12:47:05;100625.34;;;39.46;24.68
36304;BME280;22335;49.800;8.596;2023-07-09T12:54:03;100604.38;;;39.40;23.81
36304;BME280;22335;49.800;8.596;2023-07-09T13:00:54;100589.38;;;39.45;23.58
36304;BME280;22335;49.800;8.596;2023-07-09T13:07:39;100535.06;;;39.27;23.67
36304;BME280;22335;49.800;8.596;2023-07-09T13:14:27;100546.16;;;39.43;23.36
36304;BME280;22335;49.800;8.596;2023-07-09T13:21:16;100571.16;;;39.66;23.75
36304;BME280;22335;49.800;8.596;2023-07-09T13:28:00;100569.41;;;39.69;23.27
36304;BME280;22335;49.800;8.596;2023-07-09T13:34:46;100558.06;;;39.84;23.81
36304;BME280;22335;49.800;8.596;2023-07-09T13:41:29;100567.63;;;39.81;23.21
36304;BME280;22335;49.800;8.596;2023-07-09T13:48:16;100412.63;;;38.97;22.74
36304;BME280;22335;49.800;8.596;2023-07-09T13:55:03;100548.97;;;39.85;22.87
36304;BME280;22335;49.800;8.596;2023-07-09T14:01:49;100554.78;;;40.00;23.15
36304;BME280;22335;49.800;8.596;2023-07-09T14:08:33;100549.31;;;40.11;22.54
36304;BME280;22335;49.800;8.596;2023-07-09T14:15:20;100534.94;;;40.21;22.30
36304;BME280;22335;49.800;8.596;2023-07-09T14:22:20;100512.91;;;40.03;22.36
36304;BME280;22335;49.800;8.596;2023-07-09T14:29:07;100539.13;;;40.34;22.27
36304;BME280;22335;49.800;8.596;2023-07-09T14:35:52;100522.63;;;40.44;22.32
36304;BME280;22335;49.800;8.596;2023-07-09T14:42:36;100534.81;;;40.54;22.00
36304;BME280;22335;49.800;8.596;2023-07-09T14:49:21;100532.53;;;40.43;22.37
36304;BME280;22335;49.800;8.596;2023-07-09T14:56:07;100466.56;;;40.04;22.31
36304;BME280;22335;49.800;8.596;2023-07-09T15:02:52;100516.97;;;40.20;21.41
36304;BME280;22335;49.800;8.596;2023-07-09T15:09:37;100523.41;;;40.06;21.72
36304;BME280;22335;49.800;8.596;2023-07-09T15:16:22;100502.13;;;39.98;21.90
36304;BME280;22335;49.800;8.596;2023-07-09T15:23:06;100505.97;;;39.95;21.44
36304;BME280;22335;49.800;8.596;2023-07-09T15:29:51;100496.84;;;39.72;21.51
36304;BME280;22335;49.800;8.596;2023-07-09T15:36:36;100490.81;;;39.70;21.37
36304;BME280;22335;49.800;8.596;2023-07-09T15:43:20;100447.31;;;39.33;21.90
36304;BME280;22335;49.800;8.596;2023-07-09T15:50:13;100477.16;;;39.41;21.08
36304;BME280;22335;49.800;8.596;2023-07-09T15:57:00;100500.19;;;39.47;21.71
36304;BME280;22335;49.800;8.596;2023-07-09T16:03:46;100500.78;;;39.51;21.63
36304;BME280;22335;49.800;8.596;2023-07-09T16:10:30;100507.94;;;39.55;22.02
36304;BME280;22335;49.800;8.596;2023-07-09T16:17:15;100492.41;;;39.71;22.83
36304;BME280;22335;49.800;8.596;2023-07-09T16:24:01;100496.97;;;39.87;23.08
36304;BME280;22335;49.800;8.596;2023-07-09T16:30:51;100503.53;;;40.02;22.97
36304;BME280;22335;49.800;8.596;2023-07-09T16:37:39;100473.78;;;40.00;23.43
36304;BME280;22335;49.800;8.596;2023-07-09T16:44:23;100491.19;;;40.20;23.01
36304;BME280;22335;49.800;8.596;2023-07-09T16:51:08;100472.13;;;40.08;22.82
36304;BME280;22335;49.800;8.596;2023-07-09T16:57:54;100399.56;;;39.63;23.13
36304;BME280;22335;49.800;8.596;2023-07-09T17:04:39;100462.94;;;40.04;23.25
36304;BME280;22335;49.800;8.596;2023-07-09T17:11:23;100468.78;;;39.85;22.74
36304;BME280;22335;49.800;8.596;2023-07-09T17:18:17;100453.22;;;39.29;22.91
36304;BME280;22335;49.800;8.596;2023-07-09T17:25:04;100449.75;;;39.16;22.69
36304;BME280;22335;49.800;8.596;2023-07-09T17:32:06;100456.47;;;39.04;22.52
36304;BME280;22335;49.800;8.596;2023-07-09T17:38:52;100463.81;;;38.95;22.90
36304;BME280;22335;49.800;8.596;2023-07-09T17:45:36;100462.88;;;38.80;23.26
36304;BME280;22335;49.800;8.596;2023-07-09T17:52:20;100477.22;;;38.52;23.68
36304;BME280;22335;49.800;8.596;2023-07-09T17:59:09;100474.50;;;38.21;24.17
36304;BME280;22335;49.800;8.596;2023-07-09T18:05:54;100485.25;;;37.90;24.73
36304;BME280;22335;49.800;8.596;2023-07-09T18:12:38;100476.50;;;37.75;24.78
36304;BME280;22335;49.800;8.596;2023-07-09T18:19:25;100484.59;;;37.76;25.13
36304;BME280;22335;49.800;8.596;2023-07-09T18:26:12;100482.66;;;37.55;24.91
36304;BME280;22335;49.800;8.596;2023-07-09T18:32:57;100473.66;;;37.34;25.50
36304;BME280;22335;49.800;8.596;2023-07-09T18:39:45;100442.53;;;37.09;25.62
36304;BME280;22335;49.800;8.596;2023-07-09T18:46:29;100487.97;;;37.44;25.77
36304;BME280;22335;49.800;8.596;2023-07-09T18:53:14;100476.53;;;37.34;26.12
36304;BME280;22335;49.800;8.596;2023-07-09T19:00:00;100461.59;;;37.21;27.18
36304;BME280;22335;49.800;8.596;2023-07-09T19:06:45;100483.47;;;37.24;27.18
36304;BME280;22335;49.800;8.596;2023-07-09T19:13:29;100490.72;;;37.16;27.56
36304;BME280;22335;49.800;8.596;2023-07-09T19:20:20;100446.47;;;36.80;27.74
36304;BME280;22335;49.800;8.596;2023-07-09T19:27:05;100489.69;;;37.01;27.33
36304;BME280;22335;49.800;8.596;2023-07-09T19:33:49;100506.72;;;37.13;26.89
36304;BME280;22335;49.800;8.596;2023-07-09T19:40:34;100452.31;;;36.77;26.82
36304;BME280;22335;49.800;8.596;2023-07-09T19:47:22;100491.50;;;36.94;27.24
36304;BME280;22335;49.800;8.596;2023-07-09T19:54:17;100494.19;;;36.89;27.14
36304;BME280;22335;49.800;8.596;2023-07-09T20:01:10;100478.00;;;36.55;27.53
36304;BME280;22335;49.800;8.596;2023-07-09T20:07:56;100510.91;;;36.56;27.83
36304;BME280;22335;49.800;8.596;2023-07-09T20:14:44;100515.16;;;36.38;28.16
36304;BME280;22335;49.800;8.596;2023-07-09T20:21:33;100516.63;;;35.95;28.36
36304;BME280;22335;49.800;8.596;2023-07-09T20:28:20;100500.56;;;35.54;28.36
36304;BME280;22335;49.800;8.596;2023-07-09T20:35:13;100519.88;;;35.46;28.54
36304;BME280;22335;49.800;8.596;2023-07-09T20:41:59;100520.88;;;35.27;28.65
36304;BME280;22335;49.800;8.596;2023-07-09T20:48:46;100364.44;;;34.08;28.81
36304;BME280;22335;49.800;8.596;2023-07-09T20:55:33;100522.69;;;35.08;29.38
36304;BME280;22335;49.800;8.596;2023-07-09T21:02:22;100514.91;;;34.96;29.69
36304;BME280;22335;49.800;8.596;2023-07-09T21:09:14;100442.06;;;34.31;29.42
36304;BME280;22335;49.800;8.596;2023-07-09T21:16:00;100532.44;;;34.65;30.04
36304;BME280;22335;49.800;8.596;2023-07-09T21:22:45;100525.38;;;34.57;29.50
36304;BME280;22335;49.800;8.596;2023-07-09T21:29:33;100474.88;;;34.03;29.95
36304;BME280;22335;49.800;8.596;2023-07-09T21:36:19;100537.19;;;34.39;30.09
36304;BME280;22335;49.800;8.596;2023-07-09T21:43:04;100549.66;;;34.29;30.51
36304;BME280;22335;49.800;8.596;2023-07-09T21:49:48;100500.34;;;33.90;30.71
36304;BME280;22335;49.800;8.596;2023-07-09T21:56:35;100547.53;;;34.16;31.06
36304;BME280;22335;49.800;8.596;2023-07-09T22:03:20;100500.53;;;33.83;31.21
36304;BME280;22335;49.800;8.596;2023-07-09T22:10:04;100571.47;;;34.15;31.32
36304;BME280;22335;49.800;8.596;2023-07-09T22:16:52;100583.00;;;34.08;31.42
36304;BME280;22335;49.800;8.596;2023-07-09T22:23:37;100603.66;;;33.92;31.77
36304;BME280;22335;49.800;8.596;2023-07-09T22:30:23;100614.94;;;33.60;32.41
36304;BME280;22335;49.800;8.596;2023-07-09T22:37:10;100622.13;;;33.44;32.70
36304;BME280;22335;49.800;8.596;2023-07-09T22:43:56;100616.84;;;33.46;33.05
36304;BME280;22335;49.800;8.596;2023-07-09T22:50:40;100635.22;;;33.38;33.36
36304;BME280;22335;49.800;8.596;2023-07-09T22:57:23;100595.28;;;33.13;33.20
36304;BME280;22335;49.800;8.596;2023-07-09T23:04:11;100591.16;;;33.17;33.29
36304;BME280;22335;49.800;8.596;2023-07-09T23:10:57;100542.53;;;32.99;33.47
36304;BME280;22335;49.800;8.596;2023-07-09T23:17:42;100611.13;;;33.30;33.83
36304;BME280;22335;49.800;8.596;2023-07-09T23:24:27;100609.59;;;33.25;34.07
36304;BME280;22335;49.800;8.596;2023-07-09T23:31:21;100609.38;;;33.16;34.11
36304;BME280;22335;49.800;8.596;2023-07-09T23:38:07;100560.53;;;32.69;34.44
36304;BME280;22335;49.800;8.596;2023-07-09T23:44:52;100607.25;;;33.00;34.56
36304;BME280;22335;49.800;8.596;2023-07-09T23:51:36;100620.38;;;32.91;34.99
36304;BME280;22335;49.800;8.596;2023-07-09T23:58:23;100621.75;;;32.82;35.20
